Time;durP1;ratioP1;P1;durP2;ratioP2;P2;SDS_P1;SDS_P2;PMS_P1;PMS_P2;Temp;Humidity;BMP_temperature;BMP_pressure;BME280_temperature;BME280_humidity;BME280_pressure;Samples;Min_cycle;Max_cycle;Signal;HPM_P1;HPM_P2
2021/12/24 00:00:34;;;;;;;6.32;2.90;;;;;;;8.70;100.00;95716.00;4961459;28;20070;-44
2021/12/24 00:03:02;;;;;;;3.28;2.97;;;;;;;8.40;100.00;95716.41;4964019;28;20545;-51
2021/12/24 00:05:31;;;;;;;4.63;3.22;;;;;;;8.32;100.00;95717.91;4961697;28;20066;-46
2021/12/24 00:08:01;;;;;;;6.45;2.75;;;;;;;8.53;100.00;95714.19;4971913;28;20062;-46
2021/12/24 00:10:31;;;;;;;3.20;2.80;;;;;;;8.38;100.00;95711.28;4982167;28;20074;-48
2021/12/24 00:13:03;;;;;;;4.07;3.20;;;;;;;8.61;100.00;95722.19;4968058;28;20505;-47
2021/12/24 00:15:51;;;;;;;4.25;3.17;;;;;;;8.65;100.00;95714.81;4963646;28;20152;-46
2021/12/24 00:18:29;;;;;;;5.57;3.38;;;;;;;8.63;100.00;95707.06;4980029;28;20073;-47
2021/12/24 00:37:30;;;;;;;3.10;2.80;;;;;;;8.71;100.00;95675.63;4959163;28;20600;-53
2021/12/24 00:40:10;;;;;;;3.72;3.17;;;;;;;8.50;100.00;95683.81;4961923;28;20105;-52
2021/12/24 00:42:39;;;;;;;3.90;3.03;;;;;;;8.49;100.00;95679.53;4957537;28;21849;-54
2021/12/24 00:45:08;;;;;;;4.03;3.20;;;;;;;8.35;100.00;95679.19;4955240;28;20290;-50
2021/12/24 00:47:37;;;;;;;4.53;2.95;;;;;;;8.50;100.00;95677.75;4957798;28;20101;-50
2021/12/24 00:50:10;;;;;;;5.88;3.20;;;;;;;8.27;100.00;95672.06;4963321;28;20073;-56
2021/12/24 00:52:49;;;;;;;3.72;3.10;;;;;;;8.33;100.00;95674.94;4973731;28;20070;-53
2021/12/24 00:55:21;;;;;;;3.83;2.80;;;;;;;8.22;100.00;95669.06;4964256;28;20179;-53
2021/12/24 00:57:51;;;;;;;4.15;3.13;;;;;;;8.25;100.00;95669.56;4963774;28;20101;-54
2021/12/24 01:00:22;;;;;;;4.20;2.97;;;;;;;8.26;100.00;95665.19;4960473;28;20058;-51
2021/12/24 01:02:51;;;;;;;4.32;3.13;;;;;;;8.24;100.00;95660.06;4961726;28;20518;-52
2021/12/24 01:05:22;;;;;;;4.47;3.25;;;;;;;8.17;100.00;95659.00;4962811;28;20078;-55
2021/12/24 01:07:51;;;;;;;4.15;3.30;;;;;;;8.03;100.00;95659.53;4960914;28;20070;-49
2021/12/24 01:10:23;;;;;;;3.40;3.03;;;;;;;8.03;100.00;95659.53;4959872;28;20082;-51
2021/12/24 01:12:52;;;;;;;4.40;2.95;;;;;;;7.82;100.00;95662.44;4961058;28;20093;-57
2021/12/24 01:15:21;;;;;;;3.60;3.28;;;;;;;8.18;100.00;95659.84;4962548;28;20078;-49
2021/12/24 01:17:56;;;;;;;4.53;3.40;;;;;;;8.17;100.00;95647.69;4964961;28;20478;-49
2021/12/24 01:20:29;;;;;;;3.97;3.40;;;;;;;8.49;100.00;95644.53;4961382;28;20059;-55
2021/12/24 01:25:51;;;;;;;4.97;3.35;;;;;;;8.28;100.00;95650.06;4969311;28;20495;-53
2021/12/24 01:39:38;;;;;;;4.05;3.20;;;;;;;8.34;100.00;95638.97;4963368;28;20463;-55
2021/12/24 01:44:56;;;;;;;5.10;3.40;;;;;;;8.35;100.00;95642.41;4966995;28;20098;-54
2021/12/24 01:47:26;;;;;;;3.90;3.50;;;;;;;8.00;100.00;95637.00;4971704;28;20066;-51
2021/12/24 01:49:54;;;;;;;4.03;3.50;;;;;;;7.97;100.00;95634.69;4979965;28;20074;-52
2021/12/24 01:52:23;;;;;;;3.97;3.58;;;;;;;8.04;100.00;95632.28;4978581;28;20090;-53
2021/12/24 01:54:52;;;;;;;5.50;3.60;;;;;;;7.90;100.00;95617.88;4964481;28;20525;-54
2021/12/24 01:57:22;;;;;;;5.05;3.38;;;;;;;8.18;100.00;95623.06;4963287;28;20465;-51
2021/12/24 01:59:51;;;;;;;6.30;3.50;;;;;;;8.19;100.00;95608.94;4963712;28;20112;-55
2021/12/24 02:02:20;;;;;;;5.30;3.38;;;;;;;8.21;100.00;95605.22;4965040;28;20047;-50
2021/12/24 02:04:49;;;;;;;4.28;3.47;;;;;;;8.35;100.00;95595.97;4964147;28;20085;-55
2021/12/24 02:07:17;;;;;;;3.45;3.10;;;;;;;8.49;100.00;95594.63;4960364;28;20086;-53
2021/12/24 02:09:46;;;;;;;4.10;3.10;;;;;;;8.44;100.00;95597.72;4982236;28;20070;-54
2021/12/24 02:12:16;;;;;;;4.47;3.08;;;;;;;8.65;100.00;95586.88;4961147;28;20070;-47
2021/12/24 02:14:50;;;;;;;3.90;3.00;;;;;;;8.51;100.00;95584.78;4958256;28;20043;-50
2021/12/24 02:17:42;;;;;;;3.90;3.42;;;;;;;8.38;100.00;95579.94;4955868;28;20077;-49
2021/12/24 02:28:41;;;;;;;5.53;3.22;;;;;;;8.81;100.00;95575.63;4963783;28;20062;-53
2021/12/24 02:31:11;;;;;;;3.45;2.90;;;;;;;8.95;100.00;95568.97;4962583;28;20081;-54
2021/12/24 02:33:40;;;;;;;3.22;2.80;;;;;;;8.98;100.00;95561.59;4961696;28;21355;-56
2021/12/24 02:36:11;;;;;;;5.30;3.10;;;;;;;9.28;100.00;95549.72;4959482;28;20073;-54
2021/12/24 02:38:40;;;;;;;4.22;3.22;;;;;;;9.30;100.00;95556.63;4958790;28;20059;-54
2021/12/24 02:41:10;;;;;;;4.20;3.00;;;;;;;9.33;100.00;95543.16;4964456;28;20058;-55
2021/12/24 02:43:40;;;;;;;6.25;3.33;;;;;;;9.36;100.00;95543.66;4960790;28;20063;-49
2021/12/24 02:46:12;;;;;;;5.47;2.95;;;;;;;9.53;100.00;95536.63;4962203;28;20125;-54
2021/12/24 02:49:01;;;;;;;5.22;2.92;;;;;;;9.48;100.00;95531.03;4961052;28;21430;-50
2021/12/24 02:54:19;;;;;;;3.83;2.90;;;;;;;9.79;100.00;95527.81;4959433;28;20154;-51
2021/12/24 02:56:51;;;;;;;2.83;2.50;;;;;;;9.85;100.00;95520.06;4968484;28;20067;-52
2021/12/24 02:59:25;;;;;;;3.28;2.67;;;;;;;10.05;100.00;95523.22;4978894;28;20069;-51
2021/12/24 03:01:55;;;;;;;3.03;2.60;;;;;;;9.92;100.00;95510.53;4979504;28;20071;-49
2021/12/24 03:04:23;;;;;;;4.57;2.42;;;;;;;10.10;100.00;95512.19;4978283;28;20078;-51
2021/12/24 03:06:54;;;;;;;3.65;2.58;;;;;;;9.94;100.00;95513.00;4980980;28;20477;-49
2021/12/24 03:09:23;;;;;;;4.45;2.35;;;;;;;9.78;100.00;95502.47;4989090;28;20074;-52
2021/12/24 03:11:53;;;;;;;2.90;2.50;;;;;;;9.90;100.00;95501.16;4976876;28;20038;-50
2021/12/24 03:14:22;;;;;;;3.78;2.60;;;;;;;9.89;100.00;95487.16;4982315;28;20532;-52
2021/12/24 03:16:56;;;;;;;4.20;2.42;;;;;;;9.87;100.00;95486.50;4980499;28;20062;-50
2021/12/24 03:19:29;;;;;;;6.97;2.50;;;;;;;9.78;100.00;95486.66;4978869;28;20082;-51
2021/12/24 03:22:11;;;;;;;3.25;2.58;;;;;;;9.93;100.00;95491.09;4984125;28;20081;-48
2021/12/24 03:24:40;;;;;;;7.30;2.88;;;;;;;9.84;100.00;95491.25;4952174;28;21478;-51
2021/12/24 03:27:09;;;;;;;3.65;2.60;;;;;;;9.94;100.00;95482.25;4961710;28;20062;-50
2021/12/24 03:29:38;;;;;;;3.05;2.40;;;;;;;9.58;100.00;95479.06;4955960;28;20066;-51
2021/12/24 03:32:08;;;;;;;3.92;2.65;;;;;;;9.84;100.00;95476.31;4959821;28;20517;-52
2021/12/24 03:34:36;;;;;;;2.90;2.63;;;;;;;9.73;100.00;95471.34;4955388;28;20078;-48
2021/12/24 03:37:06;;;;;;;3.75;2.50;;;;;;;9.94;100.00;95476.13;4963659;28;20470;-50
2021/12/24 03:39:35;;;;;;;4.20;2.72;;;;;;;9.79;100.00;95473.34;4953379;28;20073;-48
2021/12/24 03:42:04;;;;;;;4.30;2.70;;;;;;;9.77;100.00;95469.22;4973711;28;20069;-48
2021/12/24 03:44:42;;;;;;;4.82;2.90;;;;;;;9.86;100.00;95470.88;4981377;28;20061;-46
2021/12/24 03:47:13;;;;;;;2.83;2.53;;;;;;;9.72;100.00;95475.78;4975121;28;20063;-49
2021/12/24 03:50:05;;;;;;;4.05;2.50;;;;;;;9.90;100.00;95466.91;4983126;28;20122;-47
2021/12/24 03:53:01;;;;;;;3.78;2.30;;;;;;;9.87;100.00;95467.25;4980273;28;20085;-47
2021/12/24 03:55:27;;;;;;;3.10;2.50;;;;;;;9.96;100.00;95458.34;4978363;28;20062;-51
2021/12/24 03:57:56;;;;;;;5.55;2.70;;;;;;;9.73;100.00;95458.19;4964104;28;20082;-47
2021/12/24 04:00:26;;;;;;;3.25;2.55;;;;;;;9.77;100.00;95454.22;4955673;28;20074;-46
2021/12/24 04:02:55;;;;;;;2.90;2.45;;;;;;;9.96;100.00;95456.53;4961218;28;20093;-52
2021/12/24 04:05:24;;;;;;;3.00;2.70;;;;;;;9.67;100.00;95451.78;4968847;28;20058;-48
2021/12/24 04:07:54;;;;;;;4.53;2.45;;;;;;;9.69;100.00;95452.44;4982019;28;20193;-46
2021/12/24 04:10:31;;;;;;;3.17;2.87;;;;;;;9.86;100.00;95450.63;4972372;28;20073;-51
2021/12/24 04:12:59;;;;;;;3.33;2.78;;;;;;;9.91;100.00;95445.69;4962358;28;20089;-50
2021/12/24 04:15:28;;;;;;;3.45;2.35;;;;;;;9.96;100.00;95443.38;4959400;28;20067;-47
2021/12/24 04:17:56;;;;;;;5.63;2.85;;;;;;;10.07;100.00;95444.84;4963083;28;20070;-48
2021/12/24 04:25:58;;;;;;;2.85;2.30;;;;;;;10.09;100.00;95439.44;4962063;28;20339;-52
2021/12/24 04:28:26;;;;;;;5.88;2.17;;;;;;;10.22;100.00;95432.66;4960899;28;20097;-58
2021/12/24 04:30:55;;;;;;;3.30;2.35;;;;;;;10.31;100.00;95435.28;4969106;28;20117;-46
2021/12/24 04:33:29;;;;;;;2.60;2.28;;;;;;;10.13;100.00;95436.28;4977530;28;20077;-48
2021/12/24 04:36:06;;;;;;;3.28;2.40;;;;;;;10.29;100.00;95442.53;4972728;28;20066;-50
2021/12/24 04:39:00;;;;;;;2.40;2.20;;;;;;;10.04;100.00;95441.72;4965432;28;20074;-53
2021/12/24 04:52:52;;;;;;;3.05;2.30;;;;;;;10.23;100.00;95454.56;4979421;28;20082;-55
2021/12/24 05:01:22;;;;;;;3.28;2.40;;;;;;;10.06;100.00;95452.94;4962489;28;20427;-48
2021/12/24 05:03:51;;;;;;;2.45;2.20;;;;;;;9.97;100.00;95460.00;4965534;28;20361;-46
2021/12/24 05:06:31;;;;;;;2.45;2.25;;;;;;;10.03;100.00;95461.16;4981528;28;20058;-50
2021/12/24 05:09:06;;;;;;;3.00;2.07;;;;;;;9.95;100.00;95459.34;4987020;28;20062;-48
2021/12/24 05:11:36;;;;;;;2.83;2.10;;;;;;;9.80;100.00;95458.34;4983885;28;20062;-48
2021/12/24 05:14:07;;;;;;;2.40;2.10;;;;;;;9.56;100.00;95456.53;4979806;28;20074;-53
2021/12/24 05:16:44;;;;;;;2.53;2.20;;;;;;;9.62;100.00;95458.50;4974497;28;20319;-53
2021/12/24 05:21:58;;;;;;;3.05;2.50;;;;;;;9.79;100.00;95462.81;4960047;28;20528;-49
2021/12/24 05:24:30;;;;;;;2.67;2.30;;;;;;;9.52;100.00;95466.56;4980166;28;20081;-61
2021/12/24 05:27:01;;;;;;;2.60;2.40;;;;;;;9.51;100.00;95470.19;4979763;28;20073;-52
2021/12/24 05:29:30;;;;;;;3.90;2.35;;;;;;;9.54;100.00;95469.03;4966839;28;20434;-50
2021/12/24 05:31:58;;;;;;;2.53;2.30;;;;;;;9.58;100.00;95460.66;4962255;28;20593;-48
2021/12/24 05:34:26;;;;;;;2.38;2.10;;;;;;;9.31;100.00;95455.69;4965154;28;20083;-48
2021/12/24 05:36:55;;;;;;;3.28;2.40;;;;;;;9.52;100.00;95462.13;4969663;28;20109;-48
2021/12/24 05:39:23;;;;;;;2.90;2.45;;;;;;;9.46;100.00;95472.47;4981184;28;20058;-46
2021/12/24 05:41:52;;;;;;;2.42;2.22;;;;;;;9.38;100.00;95472.47;4965775;28;20066;-49
2021/12/24 05:44:22;;;;;;;3.30;2.67;;;;;;;9.48;100.00;95463.44;4962164;28;20521;-50
2021/12/24 05:46:50;;;;;;;5.63;2.58;;;;;;;9.33;100.00;95465.06;4968291;28;20621;-49
2021/12/24 05:49:19;;;;;;;2.95;2.65;;;;;;;9.31;100.00;95468.81;4982829;28;20070;-52
2021/12/24 05:51:47;;;;;;;3.88;3.33;;;;;;;9.25;100.00;95462.41;4985272;28;20089;-50
2021/12/24 05:54:15;;;;;;;3.38;2.58;;;;;;;9.18;100.00;95472.72;4987028;28;20458;-54
2021/12/24 05:56:45;;;;;;;2.58;2.38;;;;;;;9.13;100.00;95472.41;4989233;28;20072;-53
2021/12/24 05:59:14;;;;;;;3.28;2.60;;;;;;;9.13;100.00;95467.16;4991156;28;20065;-50
2021/12/24 06:01:44;;;;;;;2.65;2.40;;;;;;;9.03;100.00;95475.16;4982462;28;20062;-55
2021/12/24 06:04:13;;;;;;;4.03;2.80;;;;;;;9.14;100.00;95475.84;4982988;28;20066;-57
2021/12/24 06:06:41;;;;;;;3.58;2.92;;;;;;;9.17;100.00;95473.72;4979067;28;22081;-58
2021/12/24 06:09:09;;;;;;;3.00;2.70;;;;;;;9.02;100.00;95475.34;4982394;28;20058;-54
2021/12/24 06:11:38;;;;;;;3.03;2.70;;;;;;;9.09;100.00;95467.63;4963120;28;20492;-55
2021/12/24 06:14:10;;;;;;;2.53;2.33;;;;;;;9.16;100.00;95468.63;4971095;28;20070;-55
2021/12/24 06:16:48;;;;;;;3.13;2.83;;;;;;;9.10;100.00;95470.09;4975451;28;20055;-57
2021/12/24 06:19:19;;;;;;;5.72;2.75;;;;;;;9.05;100.00;95477.66;4964406;28;20082;-52
2021/12/24 06:21:47;;;;;;;3.85;2.95;;;;;;;9.04;100.00;95481.25;4983930;28;20066;-52
2021/12/24 06:24:17;;;;;;;4.57;2.75;;;;;;;9.22;100.00;95476.72;4963573;28;20066;-54
2021/12/24 06:26:46;;;;;;;3.28;2.97;;;;;;;9.04;100.00;95476.78;4976228;28;20073;-57
2021/12/24 06:29:33;;;;;;;4.40;2.63;;;;;;;8.89;100.00;95485.47;4982696;28;20070;-52
2021/12/24 06:32:02;;;;;;;3.50;2.53;;;;;;;9.02;100.00;95481.41;4979721;28;20074;-56
2021/12/24 06:34:32;;;;;;;3.30;2.67;;;;;;;9.15;100.00;95477.50;4977826;28;20749;-53
2021/12/24 06:37:01;;;;;;;2.93;2.60;;;;;;;9.11;100.00;95482.25;4982128;28;20078;-54
2021/12/24 06:39:29;;;;;;;3.38;2.58;;;;;;;8.89;100.00;95481.03;4985212;28;20086;-54
2021/12/24 06:41:57;;;;;;;5.22;2.90;;;;;;;9.02;100.00;95478.78;4977883;28;20043;-52
2021/12/24 06:44:26;;;;;;;2.60;2.40;;;;;;;8.98;100.00;95482.72;4977529;28;20089;-55
2021/12/24 06:46:54;;;;;;;3.80;2.90;;;;;;;8.93;100.00;95479.72;4981927;28;20477;-55
2021/12/24 06:49:23;;;;;;;3.60;2.92;;;;;;;8.95;100.00;95482.22;4983175;28;20077;-49
2021/12/24 06:51:53;;;;;;;5.13;2.83;;;;;;;8.75;100.00;95490.34;4963293;28;20069;-49
2021/12/24 06:54:21;;;;;;;5.53;2.67;;;;;;;8.79;100.00;95491.66;4976280;28;20105;-55
2021/12/24 06:56:50;;;;;;;3.45;2.95;;;;;;;8.89;100.00;95494.16;4965336;28;20070;-52
2021/12/24 06:59:18;;;;;;;3.92;2.72;;;;;;;8.78;100.00;95494.47;4959489;28;20090;-52
2021/12/24 07:01:47;;;;;;;4.25;2.70;;;;;;;8.64;100.00;95490.63;4960703;28;20580;-52
2021/12/24 07:04:15;;;;;;;3.35;2.70;;;;;;;8.69;100.00;95492.75;4979568;28;20077;-47
2021/12/24 07:06:45;;;;;;;3.33;2.63;;;;;;;8.70;100.00;95494.41;4979531;28;20533;-53
2021/12/24 07:09:16;;;;;;;3.33;2.95;;;;;;;8.84;100.00;95493.81;4966985;28;20688;-54
2021/12/24 07:11:44;;;;;;;;;;;;;;;8.74;100.00;95493.09;4977196;28;20065;-50
2021/12/24 07:14:13;;;;;;;3.80;2.80;;;;;;;8.62;100.00;95497.81;4980380;28;19953;-49
2021/12/24 07:16:47;;;;;;;2.88;2.67;;;;;;;8.76;100.00;95506.91;4980944;28;20070;-49
2021/12/24 07:19:15;;;;;;;4.00;2.60;;;;;;;8.79;100.00;95515.31;4977957;28;20460;-49
2021/12/24 07:21:44;;;;;;;3.08;2.78;;;;;;;8.74;100.00;95506.25;4980541;28;20479;-51
2021/12/24 07:24:12;;;;;;;3.22;2.67;;;;;;;8.70;100.00;95508.34;4979480;28;20484;-54
2021/12/24 07:26:42;;;;;;;4.20;2.95;;;;;;;8.77;100.00;95506.78;4968971;28;21088;-54
2021/12/24 07:29:10;;;;;;;3.80;2.80;;;;;;;8.88;100.00;95505.69;4970053;28;20479;-50
2021/12/24 07:31:39;;;;;;;3.20;2.90;;;;;;;8.92;100.00;95508.81;4979903;28;20062;-55
2021/12/24 07:34:07;;;;;;;5.40;2.90;;;;;;;8.85;100.00;95497.28;4973552;28;20086;-50
2021/12/24 07:36:36;;;;;;;3.17;2.63;;;;;;;8.82;100.00;95489.72;4961476;28;20393;-52
2021/12/24 07:39:05;;;;;;;3.40;2.70;;;;;;;8.94;100.00;95496.31;4956570;28;20073;-50
2021/12/24 07:41:33;;;;;;;2.92;2.72;;;;;;;9.06;100.00;95495.06;4958420;28;20078;-45
2021/12/24 07:44:03;;;;;;;4.78;2.80;;;;;;;8.91;100.00;95499.25;4959708;28;20058;-51
2021/12/24 07:46:38;;;;;;;3.25;2.88;;;;;;;9.01;100.00;95498.16;4963656;28;20089;-53
2021/12/24 07:49:33;;;;;;;2.75;2.47;;;;;;;8.70;100.00;95505.72;4980606;28;20045;-53
2021/12/24 07:54:48;;;;;;;2.92;2.63;;;;;;;8.64;100.00;95505.56;4963962;28;20415;-49
2021/12/24 07:57:37;;;;;;;3.92;2.80;;;;;;;8.90;100.00;95502.88;4961567;28;20074;-53
2021/12/24 08:00:09;;;;;;;4.88;3.25;;;;;;;8.91;100.00;95491.38;4974196;28;20062;-57
2021/12/24 08:02:38;;;;;;;4.57;2.70;;;;;;;8.77;100.00;95488.38;4973049;28;20078;-51
2021/12/24 08:05:07;;;;;;;3.35;2.70;;;;;;;8.81;100.00;95496.78;4971019;28;20070;-51
2021/12/24 08:07:35;;;;;;;3.97;2.80;;;;;;;8.78;100.00;95494.47;4977437;28;20573;-49
2021/12/24 08:10:05;;;;;;;2.88;2.40;;;;;;;8.49;100.00;95492.97;4959276;28;20090;-52
2021/12/24 08:12:33;;;;;;;2.95;2.75;;;;;;;8.72;100.00;95501.16;4981507;28;20066;-51
2021/12/24 08:15:04;;;;;;;3.42;2.97;;;;;;;8.64;100.00;95497.69;4964567;28;20070;-52
2021/12/24 08:17:35;;;;;;;3.58;3.08;;;;;;;8.53;100.00;95498.75;4959120;28;20070;-56
2021/12/24 08:20:04;;;;;;;3.90;2.95;;;;;;;8.68;100.00;95491.13;4957667;28;20078;-57
2021/12/24 08:22:34;;;;;;;5.63;2.80;;;;;;;8.69;100.00;95488.31;4969079;28;23774;-51
2021/12/24 08:25:05;;;;;;;2.80;2.60;;;;;;;8.52;100.00;95504.97;4984539;28;20541;-54
2021/12/24 08:27:34;;;;;;;3.53;2.65;;;;;;;8.54;100.00;95501.22;4960327;28;20835;-49
2021/12/24 08:30:05;;;;;;;3.08;2.75;;;;;;;8.42;100.00;95491.13;4962042;28;20070;-48
2021/12/24 08:32:38;;;;;;;;;;;;;;;8.56;100.00;95496.63;4973513;28;20077;-51
2021/12/24 08:35:08;;;;;;;4.43;2.80;;;;;;;8.46;100.00;95484.59;4975731;28;19957;-45
2021/12/24 08:37:36;;;;;;;5.53;3.08;;;;;;;8.60;100.00;95499.75;4969073;28;20081;-56
2021/12/24 08:40:06;;;;;;;3.45;2.80;;;;;;;8.64;100.00;95490.63;4984952;28;21906;-53
2021/12/24 08:42:34;;;;;;;4.45;3.00;;;;;;;8.52;100.00;95513.69;4982118;28;20521;-52
2021/12/24 08:45:03;;;;;;;5.35;2.40;;;;;;;8.49;100.00;95502.66;4986410;28;20066;-47
2021/12/24 08:47:32;;;;;;;3.88;2.90;;;;;;;8.69;100.00;95509.34;4982338;28;20074;-47
2021/12/24 08:50:02;;;;;;;2.70;2.50;;;;;;;8.59;100.00;95506.00;4980555;28;20656;-53
2021/12/24 08:52:30;;;;;;;4.00;2.53;;;;;;;8.46;100.00;95487.22;4978972;28;20081;-50
2021/12/24 08:54:58;;;;;;;2.50;2.30;;;;;;;8.72;100.00;95497.72;4987181;28;20082;-51
2021/12/24 08:57:27;;;;;;;3.53;2.40;;;;;;;8.77;100.00;95493.63;4980340;28;20081;-52
2021/12/24 08:59:55;;;;;;;2.92;2.60;;;;;;;8.98;100.00;95489.75;4976364;28;20079;-46
2021/12/24 09:02:24;;;;;;;2.85;2.47;;;;;;;8.84;100.00;95488.53;4982854;28;20465;-46
2021/12/24 09:04:52;;;;;;;5.07;2.65;;;;;;;8.96;100.00;95494.38;4982362;28;20528;-52
2021/12/24 09:07:22;;;;;;;3.20;2.80;;;;;;;9.06;100.00;95489.00;4981302;28;20082;-54
2021/12/24 09:09:50;;;;;;;3.43;3.03;;;;;;;8.97;100.00;95498.63;4981838;28;20082;-50
2021/12/24 09:12:18;;;;;;;2.95;2.65;;;;;;;8.96;100.00;95495.19;4988493;28;20070;-49
2021/12/24 09:14:47;;;;;;;2.63;2.30;;;;;;;9.00;100.00;95493.06;4974549;28;20088;-54
2021/12/24 09:17:16;;;;;;;2.58;2.38;;;;;;;9.19;100.00;95490.19;4965418;28;20074;-48
2021/12/24 09:19:48;;;;;;;4.35;2.58;;;;;;;8.97;100.00;95486.31;4967623;28;20070;-47
2021/12/24 09:22:18;;;;;;;2.50;2.30;;;;;;;8.87;100.00;95466.38;4965201;28;20086;-51
2021/12/24 09:24:52;;;;;;;3.22;2.60;;;;;;;9.20;100.00;95476.03;4969624;28;20521;-49
2021/12/24 09:27:21;;;;;;;5.82;2.58;;;;;;;9.26;100.00;95472.78;4966708;28;20058;-46
2021/12/24 09:29:49;;;;;;;3.70;2.58;;;;;;;9.03;100.00;95482.22;4981434;28;20070;-45
2021/12/24 09:32:18;;;;;;;2.80;2.38;;;;;;;9.16;100.00;95473.91;4976673;28;20075;-48
2021/12/24 09:34:46;;;;;;;2.17;2.03;;;;;;;9.09;100.00;95481.59;4964764;28;20066;-50
2021/12/24 09:37:15;;;;;;;2.00;1.90;;;;;;;8.91;100.00;95481.72;4965445;28;20085;-46
2021/12/24 09:39:43;;;;;;;2.40;2.20;;;;;;;9.04;100.00;95474.16;4988641;28;20082;-50
2021/12/24 09:42:13;;;;;;;3.75;2.25;;;;;;;9.33;100.00;95475.59;4982311;28;20077;-47
2021/12/24 09:44:42;;;;;;;3.10;2.25;;;;;;;8.85;100.00;95479.69;4987795;28;20074;-46
2021/12/24 09:47:10;;;;;;;2.85;2.47;;;;;;;9.17;100.00;95478.16;4988239;28;20069;-46
2021/12/24 09:49:38;;;;;;;2.70;2.50;;;;;;;9.16;100.00;95487.03;4987903;28;20705;-52
2021/12/24 09:52:07;;;;;;;2.38;2.17;;;;;;;9.00;100.00;95486.00;4991952;28;20115;-50
2021/12/24 09:54:36;;;;;;;2.30;2.10;;;;;;;8.84;100.00;95471.97;4987015;28;20061;-48
2021/12/24 09:57:05;;;;;;;3.13;2.35;;;;;;;9.15;100.00;95482.75;4991414;28;20088;-48
2021/12/24 09:59:36;;;;;;;2.95;2.25;;;;;;;9.20;100.00;95476.03;4970072;28;20081;-51
2021/12/24 10:02:07;;;;;;;3.05;2.25;;;;;;;9.07;100.00;95482.72;4965324;28;20062;-46
2021/12/24 10:04:36;;;;;;;2.90;2.28;;;;;;;8.82;100.00;95481.81;4965287;28;20834;-46
2021/12/24 10:07:07;;;;;;;7.18;2.50;;;;;;;9.27;100.00;95474.41;4968152;28;20089;-45
2021/12/24 10:09:36;;;;;;;;;;;;;;;9.12;100.00;95483.06;4984912;28;20066;-53
2021/12/24 10:12:07;;;;;;;3.72;2.40;;;;;;;9.00;100.00;95475.47;4969406;28;19954;-46
2021/12/24 10:14:41;;;;;;;4.05;2.40;;;;;;;9.03;100.00;95471.72;4963852;28;20070;-45
2021/12/24 10:17:16;;;;;;;3.20;2.50;;;;;;;8.87;100.00;95487.41;4964296;28;20054;-45
2021/12/24 10:19:46;;;;;;;3.42;2.70;;;;;;;8.93;100.00;95476.28;4969057;28;20058;-48
2021/12/24 10:22:15;;;;;;;5.50;2.60;;;;;;;9.06;100.00;95475.84;4985509;28;20104;-52
2021/12/24 10:24:44;;;;;;;4.45;2.97;;;;;;;8.79;100.00;95467.19;4963195;28;20497;-48
2021/12/24 10:27:13;;;;;;;2.53;2.30;;;;;;;8.86;100.00;95472.63;4961923;28;20482;-52
2021/12/24 10:29:43;;;;;;;3.05;2.60;;;;;;;8.78;100.00;95462.91;4976191;28;20054;-51
2021/12/24 10:32:14;;;;;;;4.57;2.50;;;;;;;8.91;100.00;95470.34;4992612;28;20133;-46
2021/12/24 10:34:43;;;;;;;3.83;2.78;;;;;;;8.81;100.00;95459.97;4982519;28;20072;-49
2021/12/24 10:37:15;;;;;;;2.70;2.50;;;;;;;8.86;100.00;95464.75;4987000;28;20524;-47
2021/12/24 10:39:46;;;;;;;3.38;2.30;;;;;;;8.74;100.00;95470.28;4987867;28;20504;-51
2021/12/24 10:42:24;;;;;;;4.50;2.97;;;;;;;8.83;100.00;95459.81;4984481;28;20069;-46
2021/12/24 10:44:55;;;;;;;3.33;2.50;;;;;;;8.93;100.00;95461.31;4969789;28;20081;-46
2021/12/24 10:47:26;;;;;;;5.13;2.80;;;;;;;9.28;100.00;95446.28;4973895;28;20193;-48
2021/12/24 10:50:06;;;;;;;4.15;2.80;;;;;;;9.25;100.00;95428.19;4990248;28;20050;-48
2021/12/24 10:55:35;;;;;;;3.55;2.60;;;;;;;8.99;100.00;95410.72;4971009;28;19975;-52
2021/12/24 10:58:05;;;;;;;3.25;2.47;;;;;;;9.16;100.00;95437.91;4989392;28;20081;-49
2021/12/24 11:00:39;;;;;;;3.05;2.70;;;;;;;9.38;100.00;95438.25;4966019;28;20073;-47
2021/12/24 11:03:09;;;;;;;12.85;2.78;;;;;;;9.37;100.00;95436.63;4980464;28;20084;-51
2021/12/24 11:05:40;;;;;;;2.95;2.28;;;;;;;9.26;100.00;95427.22;4983058;28;20066;-45
2021/12/24 11:08:10;;;;;;;3.85;2.35;;;;;;;9.55;100.00;95445.19;4986498;28;20077;-51
2021/12/24 11:10:40;;;;;;;4.90;2.15;;;;;;;9.38;100.00;95438.25;4990643;28;20093;-49
2021/12/24 11:13:12;;;;;;;2.78;2.55;;;;;;;9.22;100.00;95428.50;4984767;28;20605;-52
2021/12/24 11:15:45;;;;;;;3.83;2.78;;;;;;;9.58;100.00;95423.81;4964090;28;20624;-51
2021/12/24 11:18:17;;;;;;;3.78;2.78;;;;;;;9.62;100.00;95422.47;4982861;28;20062;-48
2021/12/24 11:20:46;;;;;;;2.92;2.67;;;;;;;9.68;100.00;95418.38;4963146;28;20077;-50
2021/12/24 11:23:16;;;;;;;3.20;2.30;;;;;;;9.57;100.00;95423.97;4955088;28;20085;-46
2021/12/24 11:25:46;;;;;;;2.70;2.50;;;;;;;9.67;100.00;95417.56;4969647;28;20077;-49
2021/12/24 11:28:16;;;;;;;2.35;2.17;;;;;;;9.30;100.00;95419.84;4989643;28;20080;-53
2021/12/24 11:30:49;;;;;;;2.65;2.33;;;;;;;9.42;100.00;95427.22;4965930;28;20081;-51
2021/12/24 11:33:20;;;;;;;3.65;2.40;;;;;;;9.47;100.00;95422.31;4967098;28;20553;-52
2021/12/24 11:35:50;;;;;;;3.70;2.70;;;;;;;9.57;100.00;95421.34;4968469;28;20505;-49
2021/12/24 11:38:21;;;;;;;4.30;2.72;;;;;;;9.56;100.00;95414.41;4969491;28;20077;-50
2021/12/24 11:40:51;;;;;;;3.88;2.63;;;;;;;9.47;100.00;95422.31;4964327;28;20062;-46
2021/12/24 11:43:22;;;;;;;2.40;2.20;;;;;;;9.63;100.00;95415.41;5007182;28;20425;-55
2021/12/24 11:45:52;;;;;;;3.60;2.38;;;;;;;9.55;100.00;95413.59;4992844;28;20073;-46
2021/12/24 11:48:20;;;;;;;3.00;2.70;;;;;;;9.87;100.00;95415.41;4988087;28;20062;-48
2021/12/24 11:50:48;;;;;;;2.53;2.30;;;;;;;9.70;100.00;95419.88;4989769;28;20068;-48
2021/12/24 11:53:18;;;;;;;4.22;2.67;;;;;;;9.68;100.00;95418.38;4983071;28;20109;-48
2021/12/24 11:55:48;;;;;;;2.75;2.33;;;;;;;9.42;100.00;95397.47;4966025;28;20523;-52
2021/12/24 11:58:20;;;;;;;3.38;2.53;;;;;;;9.43;100.00;95407.84;4961575;28;20087;-48
2021/12/24 12:00:54;;;;;;;2.65;2.45;;;;;;;9.63;100.00;95389.09;4991114;28;20082;-48
2021/12/24 12:03:34;;;;;;;3.38;2.30;;;;;;;9.64;100.00;95390.75;4990880;28;20073;-47
2021/12/24 12:06:05;;;;;;;3.28;2.50;;;;;;;9.82;100.00;95387.94;4988635;28;20070;-49
2021/12/24 12:08:40;;;;;;;2.40;2.20;;;;;;;9.59;100.00;95377.25;4989693;28;20069;-48
2021/12/24 12:11:20;;;;;;;2.50;2.30;;;;;;;9.60;100.00;95390.25;4982633;28;20071;-51
2021/12/24 12:13:57;;;;;;;4.93;2.30;;;;;;;9.51;100.00;95381.53;4968216;28;20081;-50
2021/12/24 12:16:29;;;;;;;2.72;2.25;;;;;;;9.67;100.00;95390.41;4989604;28;20082;-48
2021/12/24 12:19:16;;;;;;;2.67;2.20;;;;;;;9.49;100.00;95394.00;4996159;28;20061;-51
2021/12/24 12:22:17;;;;;;;4.28;2.70;;;;;;;9.63;100.00;95381.19;4960758;28;20380;-52
2021/12/24 12:27:38;;;;;;;4.72;2.30;;;;;;;9.74;100.00;95368.53;4995967;28;20069;-47
2021/12/24 12:30:25;;;;;;;3.83;2.40;;;;;;;9.44;100.00;95356.03;4982350;28;20116;-52
2021/12/24 12:33:05;;;;;;;2.50;2.30;;;;;;;9.82;100.00;95369.50;4974385;28;20077;-52
2021/12/24 12:35:42;;;;;;;2.42;2.22;;;;;;;9.57;100.00;95366.91;4980657;28;20070;-52
2021/12/24 12:38:29;;;;;;;4.22;2.35;;;;;;;9.88;100.00;95368.84;4984199;28;20071;-49
2021/12/24 12:41:30;;;;;;;4.75;2.55;;;;;;;9.86;100.00;95368.19;4972743;28;20062;-52
2021/12/24 12:44:01;;;;;;;3.13;2.20;;;;;;;9.56;100.00;95373.13;4987071;28;20077;-53
2021/12/24 12:46:32;;;;;;;5.10;2.47;;;;;;;9.52;100.00;95369.19;4987028;28;20642;-52
2021/12/24 12:49:04;;;;;;;2.30;2.10;;;;;;;9.78;100.00;95366.38;4988126;28;20101;-51
2021/12/24 12:51:50;;;;;;;6.05;2.50;;;;;;;9.68;100.00;95361.28;4968423;28;20062;-51
2021/12/24 12:54:33;;;;;;;4.47;2.45;;;;;;;9.71;100.00;95360.97;4984423;28;20076;-53
2021/12/24 12:57:19;;;;;;;4.43;2.67;;;;;;;9.78;100.00;95360.31;4963547;28;20149;-56
2021/12/24 13:00:27;;;;;;;3.95;2.63;;;;;;;9.74;100.00;95351.91;4962062;28;20500;-49
2021/12/24 13:03:08;;;;;;;3.67;2.60;;;;;;;9.99;100.00;95368.50;4973426;28;20085;-51
2021/12/24 13:06:09;;;;;;;2.95;2.58;;;;;;;9.69;100.00;95341.88;4985861;28;20070;-53
2021/12/24 13:08:39;;;;;;;2.47;2.22;;;;;;;9.98;100.00;95353.69;4963548;28;20077;-59
2021/12/24 13:11:13;;;;;;;3.30;2.20;;;;;;;9.88;100.00;95355.69;4983301;28;20068;-46
2021/12/24 13:13:52;;;;;;;2.45;2.20;;;;;;;9.78;100.00;95347.97;4982569;28;20078;-48